^^
Station Historical Data
Daily Summary for December 2, 2017 Units:  Metric    English   Both
« Previous Day
Next Day »
Daily Weekly Monthly Yearly Custom
  High: Low: Average:
Temperature: 32.6 °C 15.9 °C 22 °C
Dew Point: 11 °C -4.5 °C 5.2 °C
Humidity: 67% 9% 38%
Wind Speed: 35.2km/h 1.4km/h 13.8km/h
Wind Gust: 41.8km/h - -
Wind- - SW
Pressure: 1009.7 hPa 1002.9 hPa -
Precipitation: 0 mm    
Historical Graphs
 
 
Tabular Data for December 2, 2017
Time Temperature Dew Point Pressure Wind Wind Speed Wind Gust Humidity Rainfall Rate (Hourly) solar Conditions
00:01 23.1 °C 2.5 °C 1006 hPa SSW 13 km/h 17.7 km/h 26% 0 mm 0.0 W/m2
00:21 22.5 °C 3.1 °C 1005.6 hPa SW 19.5 km/h 19.5 km/h 28% 0 mm 0.0 W/m2
00:26 22.4 °C 3.5 °C 1005.6 hPa SW 16.3 km/h 20.9 km/h 29% 0 mm 0.0 W/m2
00:31 22.3 °C 3.4 °C 1005.6 hPa SW 17.7 km/h 22.5 km/h 29% 0 mm 0.0 W/m2
00:36 22.2 °C 3.3 °C 1005.6 hPa SW 19.5 km/h 24.1 km/h 29% 0 mm 0.0 W/m2
00:47 21.9 °C 3.5 °C 1005.3 hPa SW 16.3 km/h 19.3 km/h 30% 0 mm 0.0 W/m2
01:07 21.6 °C 3.7 °C 1005.3 hPa SW 14.3 km/h 17.7 km/h 31% 0 mm 0.0 W/m2
01:12 21.4 °C 4 °C 1005 hPa SW 14.3 km/h 19.3 km/h 32% 0 mm 0.0 W/m2
01:17 21.3 °C 4.4 °C 1005.3 hPa SW 16.3 km/h 22.5 km/h 33% 0 mm 0.0 W/m2
01:28 21.1 °C 4.6 °C 1005 hPa SW 16.3 km/h 22.5 km/h 34% 0 mm 0.0 W/m2
01:33 21 °C 4.5 °C 1005.3 hPa SW 13 km/h 17.7 km/h 34% 0 mm 0.0 W/m2
02:03 20.5 °C 4.9 °C 1005.3 hPa SW 11.1 km/h 14.5 km/h 36% 0 mm 0.0 W/m2
02:18 20.3 °C 5.1 °C 1005.3 hPa SW 13 km/h 13 km/h 37% 0 mm 0.0 W/m2
02:33 19.8 °C 5.1 °C 1005 hPa SW 11.1 km/h 12.9 km/h 38% 0 mm 0.0 W/m2
02:38 19.8 °C 5.4 °C 1005.3 hPa SW 11.1 km/h 12.9 km/h 39% 0 mm 0.0 W/m2
02:43 19.7 °C 5.4 °C 1005.3 hPa SW 7.9 km/h 14.5 km/h 39% 0 mm 0.0 W/m2
02:58 19.7 °C 5.7 °C 1005.3 hPa SW 7.9 km/h 11.3 km/h 40% 0 mm 0.0 W/m2
03:03 19.6 °C 5.6 °C 1005.3 hPa SW 6.4 km/h 8 km/h 40% 0 mm 0.0 W/m2
03:08 19.3 °C 5.7 °C 1005.6 hPa SW 9.7 km/h 9.7 km/h 41% 0 mm 0.0 W/m2
03:13 19.1 °C 6.2 °C 1005.6 hPa SW 9.7 km/h 12.9 km/h 43% 0 mm 0.0 W/m2
03:18 19.1 °C 6.6 °C 1005.6 hPa SW 16.3 km/h 16.3 km/h 44% 0 mm 0.0 W/m2
03:29 18.9 °C 7.3 °C 1005.3 hPa SW 13 km/h 16.1 km/h 47% 0 mm 0.0 W/m2
03:39 18.7 °C 7.8 °C 1005 hPa SW 7.9 km/h 11.3 km/h 49% 0 mm 0.0 W/m2
03:54 18.3 °C 8 °C 1005.3 hPa SW 6.4 km/h 6.4 km/h 51% 0 mm 0.0 W/m2
04:04 18.1 °C 8.1 °C 1005.3 hPa SW 7.9 km/h 8 km/h 52% 0 mm 0.0 W/m2
04:14 18 °C 8.3 °C 1005.3 hPa SW 6.4 km/h 8 km/h 53% 0 mm 0.0 W/m2
04:24 17.8 °C 8.1 °C 1005.3 hPa SW 6.4 km/h 9.7 km/h 53% 0 mm 0.0 W/m2
04:29 17.8 °C 8.4 °C 1005.6 hPa SW 6.4 km/h 8 km/h 54% 0 mm 0.0 W/m2
04:40 17.8 °C 8.4 °C 1005.3 hPa SW 7.9 km/h 11.3 km/h 54% 0 mm 0.0 W/m2
04:49 17.8 °C 8.4 °C 1005.3 hPa SW 7.9 km/h 12.9 km/h 54% 0 mm 0.0 W/m2
04:55 17.7 °C 8.5 °C 1005.6 hPa SW 7.9 km/h 11.3 km/h 55% 0 mm 0.0 W/m2
05:00 17.5 °C 8.4 °C 1005.6 hPa SW 3.2 km/h 6.4 km/h 55% 0 mm 0.0 W/m2
05:05 17.3 °C 8.4 °C 1005.6 hPa SW 6.4 km/h 6.4 km/h 56% 0 mm 0.0 W/m2
05:17 16.9 °C 8.3 °C 1005.6 hPa SW 4.7 km/h 8 km/h 57% 0 mm 0.0 W/m2
05:22 16.8 °C 8.7 °C 1005.6 hPa SW 6.4 km/h 8 km/h 59% 0 mm 0.0 W/m2
05:28 16.8 °C 8.7 °C 1006 hPa SW 4.7 km/h 6.4 km/h 59% 0 mm 0.0 W/m2
05:36 16.5 °C 8.7 °C 1006 hPa SW 6.4 km/h 8 km/h 60% 0 mm 0.0 W/m2
05:45 16.1 °C 8.3 °C 1006 hPa SW 4.7 km/h 6.4 km/h 60% 0 mm 0.0 W/m2
05:55 15.9 °C 8.9 °C 1006 hPa SW 6.4 km/h 9.7 km/h 63% 0 mm 9.0 W/m2
06:02 15.9 °C 9.3 °C 1006 hPa SW 6.4 km/h 11.3 km/h 65% 0 mm 12.0 W/m2
06:13 15.9 °C 9.3 °C 1006.3 hPa SW 6.4 km/h 9.7 km/h 65% 0 mm 23.0 W/m2
06:28 16.1 °C 10 °C 1006.3 hPa SW 11.1 km/h 11.3 km/h 67% 0 mm 58.0 W/m2
06:36 16.2 °C 10.1 °C 1006.3 hPa SW 4.7 km/h 9.7 km/h 67% 0 mm 91.0 W/m2
06:48 16.4 °C 10 °C 1006.7 hPa SW 9.7 km/h 11.3 km/h 66% 0 mm 130.0 W/m2
06:53 16.4 °C 10.3 °C 1006.3 hPa SW 11.1 km/h 11.3 km/h 67% 0 mm 153.0 W/m2
07:02 16.4 °C 10.3 °C 1006.3 hPa SW 11.1 km/h 14.5 km/h 67% 0 mm 195.0 W/m2
07:08 16.5 °C 10.4 °C 1006.3 hPa SW 13 km/h 14.5 km/h 67% 0 mm 216.0 W/m2
07:38 16.9 °C 10.7 °C 1006.7 hPa SW 16.3 km/h 19.3 km/h 67% 0 mm 320.0 W/m2
07:47 17.1 °C 10.9 °C 1007 hPa SW 16.3 km/h 20.9 km/h 67% 0 mm 357.0 W/m2
07:56 17.4 °C 11 °C 1007 hPa SW 17.7 km/h 20.9 km/h 66% 0 mm 388.0 W/m2
08:02 17.6 °C 10.9 °C 1007 hPa SW 13 km/h 17.7 km/h 65% 0 mm 406.0 W/m2
08:08 17.8 °C 10.9 °C 1007 hPa SW 13 km/h 19.3 km/h 64% 0 mm 424.0 W/m2
08:17 18.2 °C 10.8 °C 1007 hPa SW 13 km/h 16.1 km/h 62% 0 mm 459.0 W/m2
08:37 18.9 °C 10.7 °C 1007 hPa SW 13 km/h 16.1 km/h 59% 0 mm 526.0 W/m2
08:42 19.2 °C 10.7 °C 1007 hPa SW 9.7 km/h 17.7 km/h 58% 0 mm 543.0 W/m2
08:47 19.6 °C 10.8 °C 1007 hPa SW 9.7 km/h 16.1 km/h 57% 0 mm 561.0 W/m2
08:52 19.8 °C 10.8 °C 1007 hPa SW 17.7 km/h 19.3 km/h 56% 0 mm 577.0 W/m2
08:57 20 °C 10.4 °C 1007 hPa SW 13 km/h 16.1 km/h 54% 0 mm 594.0 W/m2
09:02 20.3 °C 10.4 °C 1007 hPa SW 13 km/h 16.1 km/h 53% 0 mm 606.0 W/m2
09:07 20.6 °C 10.4 °C 1007 hPa SW 13 km/h 16.1 km/h 52% 0 mm 621.0 W/m2
09:12 20.8 °C 10.3 °C 1007 hPa SW 14.3 km/h 17.7 km/h 51% 0 mm 633.0 W/m2
09:22 21.3 °C 10.2 °C 1006.7 hPa SW 16.3 km/h 17.7 km/h 49% 0 mm 668.0 W/m2
09:36 21.9 °C 9.8 °C 1006.7 hPa SW 11.1 km/h 16.1 km/h 46% 0 mm 701.0 W/m2
09:47 22.7 °C 9.5 °C 1006.7 hPa SW 13 km/h 20.9 km/h 43% 0 mm 733.0 W/m2
10:13 23.8 °C 8.2 °C 1006.3 hPa SW 16.3 km/h 19.3 km/h 37% 0 mm 798.0 W/m2
10:28 24.8 °C 6.5 °C 1006.3 hPa SW 13 km/h 14.5 km/h 31% 0 mm 837.0 W/m2
10:36 25.5 °C 5.7 °C 1006.3 hPa SW 11.1 km/h 17.7 km/h 28% 0 mm 861.0 W/m2
10:45 25.9 °C 4.9 °C 1006.3 hPa SW 7.9 km/h 14.5 km/h 26% 0 mm 882.0 W/m2
10:54 26.7 °C 4.5 °C 1006.3 hPa SW 7.9 km/h 12.9 km/h 24% 0 mm 902.0 W/m2
11:08 27.2 °C 4.3 °C 1006 hPa SW 11.1 km/h 14.5 km/h 23% 0 mm 930.0 W/m2
11:14 27.4 °C 1 °C 1006 hPa SW 6.4 km/h 16.1 km/h 18% 0 mm 939.0 W/m2
11:23 28.3 °C 1.7 °C 1005.6 hPa SW 14.3 km/h 16.1 km/h 18% 0 mm 954.0 W/m2
11:33 28.8 °C 0.5 °C 1006 hPa WSW 9.7 km/h 20.9 km/h 16% 0 mm 963.0 W/m2
11:39 28.8 °C 1.3 °C 1005.6 hPa WSW 4.7 km/h 14.5 km/h 17% 0 mm 965.0 W/m2
11:48 29.3 °C 1.7 °C 1005.6 hPa WSW 4.7 km/h 20.9 km/h 17% 0 mm 974.0 W/m2
11:53 29.1 °C 2.4 °C 1005.6 hPa WSW 11.1 km/h 16.1 km/h 18% 0 mm 977.0 W/m2
12:01 29.3 °C 1.7 °C 1005.6 hPa WSW 6.4 km/h 16.1 km/h 17% 0 mm 981.0 W/m2
12:17 29.6 °C 1.1 °C 1005.6 hPa WSW 3.2 km/h 14.5 km/h 16% 0 mm 986.0 W/m2
13:29 31.6 °C -1.3 °C 1004.3 hPa West 16.3 km/h 16.3 km/h 12% 0 mm 969.0 W/m2
13:31 31.4 °C -2.6 °C 1004.3 hPa West 1.4 km/h 12.9 km/h 11% 0 mm 970.0 W/m2
13:49 31.9 °C -1 °C 1004.3 hPa West 1.4 km/h 20.9 km/h 12% 0 mm 949.0 W/m2
14:00 31.7 °C -2.4 °C 1003.9 hPa West 1.4 km/h 1.6 km/h 11% 0 mm 933.0 W/m2
14:15 32.4 °C -4.5 °C 1003.9 hPa WSW 6.4 km/h 19.3 km/h 9% 0 mm 921.0 W/m2
14:30 32.6 °C -4.4 °C 1003.3 hPa WSW 9.7 km/h 14.5 km/h 9% 0 mm 893.0 W/m2
14:54 32.1 °C -0.9 °C 1003.3 hPa SW 7.9 km/h 16.1 km/h 12% 0 mm 840.0 W/m2
15:05 32.3 °C -1.9 °C 1002.9 hPa SW 13 km/h 14.5 km/h 11% 0 mm 821.0 W/m2
15:21 32.3 °C 0.4 °C 1002.9 hPa SSW 27.4 km/h 29 km/h 13% 0 mm 779.0 W/m2
15:36 32 °C 1.2 °C 1002.9 hPa SSW 14.3 km/h 22.5 km/h 14% 0 mm 733.0 W/m2
16:09 32.1 °C 2.2 °C 1002.9 hPa SSW 28.8 km/h 37 km/h 15% 0 mm 629.0 W/m2
16:15 31.6 °C 5.2 °C 1002.9 hPa SSW 24.1 km/h 41.8 km/h 19% 0 mm 596.0 W/m2
16:21 31.6 °C 5.2 °C 1002.9 hPa SSW 24.1 km/h 41.8 km/h 19% 0 mm 596.0 W/m2
16:51 29.6 °C 6.9 °C 1002.9 hPa SSW 35.2 km/h 40.2 km/h 24% 0 mm 496.0 W/m2
17:03 28.8 °C 6.8 °C 1003.3 hPa SSW 35.2 km/h 40.2 km/h 25% 0 mm 443.0 W/m2
17:11 28.6 °C 6.6 °C 1003.6 hPa SSW 33.8 km/h 40.2 km/h 25% 0 mm 411.0 W/m2
17:16 28.3 °C 7 °C 1003.6 hPa SSW 33.8 km/h 37 km/h 26% 0 mm 394.0 W/m2
19:31 22.9 °C 5.8 °C 1006 hPa South 22.7 km/h 35.4 km/h 33% 0 mm 7.0 W/m2
19:56 22.3 °C 3.4 °C 1006.3 hPa SW 24.1 km/h 29 km/h 29% 0 mm 0.0 W/m2
20:03 22.3 °C 3.4 °C 1006.7 hPa South 25.9 km/h 33.8 km/h 29% 0 mm 0.0 W/m2
20:20 21.7 °C 3.4 °C 1006.7 hPa SSW 27.4 km/h 33.8 km/h 30% 0 mm 0.0 W/m2
20:28 21.5 °C 3.7 °C 1007 hPa SSW 25.9 km/h 30.6 km/h 31% 0 mm 0.0 W/m2
20:33 21.3 °C 3 °C 1007 hPa SSW 27.4 km/h 37 km/h 30% 0 mm 0.0 W/m2
20:41 21.1 °C 1.9 °C 1007.3 hPa SSW 17.7 km/h 29 km/h 28% 0 mm 0.0 W/m2
20:48 21 °C 1.3 °C 1007.3 hPa SSW 20.9 km/h 30.6 km/h 27% 0 mm 0.0 W/m2
21:03 20.7 °C 0 °C 1008 hPa SSW 27.4 km/h 32.2 km/h 25% 0 mm 0.0 W/m2
21:09 20.7 °C -0.6 °C 1008 hPa South 27.4 km/h 35.4 km/h 24% 0 mm 0.0 W/m2
21:19 20.4 °C -0.3 °C 1008 hPa SSW 24.1 km/h 30.6 km/h 25% 0 mm 0.0 W/m2
21:26 20.2 °C -1.6 °C 1008.4 hPa SSW 20.9 km/h 27.4 km/h 23% 0 mm 0.0 W/m2
21:36 20.2 °C -2.2 °C 1008.4 hPa SSW 22.7 km/h 27.4 km/h 22% 0 mm 0.0 W/m2
21:42 20.1 °C -1.1 °C 1008.4 hPa SSW 11.1 km/h 27.4 km/h 24% 0 mm 0.0 W/m2
22:07 19.7 °C -0.3 °C 1008.7 hPa SSW 17.7 km/h 24.1 km/h 26% 0 mm 0.0 W/m2
22:21 19.3 °C 0.3 °C 1009 hPa South 20.9 km/h 25.7 km/h 28% 0 mm 0.0 W/m2
22:37 18.7 °C 1.2 °C 1009.4 hPa SW 24.1 km/h 24.1 km/h 31% 0 mm 0.0 W/m2
22:48 18.6 °C 1.6 °C 1009.7 hPa SSW 13 km/h 20.9 km/h 32% 0 mm 0.0 W/m2
22:57 18.3 °C 2.2 °C 1009.7 hPa SSW 17.7 km/h 20.9 km/h 34% 0 mm 0.0 W/m2
23:04 18.1 °C 2.4 °C 1009.7 hPa SSW 20.9 km/h 27.4 km/h 35% 0 mm 0.0 W/m2
23:15 17.8 °C 3.3 °C 1009.7 hPa SSW 19.5 km/h 22.5 km/h 38% 0 mm 0.0 W/m2
Canyon Roadhouse, Fishriver Canyon, Namibia
Compliments of Weather Underground - 2.25 mb